John_paul K — PBHY — position and weather

sailwx.info

Track history (hours):
 
Tides and Currents Weather Stations Pressure Air Temp Water Temp Dewpoint Dewpoint Depression Visibility Wind Speed Wind Dir Waves Ship Positions

John_paul K

Last reported at 2016-Feb-05 19:23 UTC. Time now 2016-Feb-08 18:59 UTC.
Position N 43°23' E 003°44'.

Length 90 m; draft 5.9 m.

Type: Cargo ship. MMSI: 245181000.

Date/timePositionNaut miles runAvg speedWind from/ knotsBaromVisibWave heightAir tempDewpointWater temp
2016-Feb-05 19:23N 43°23' E 003°44'  
2016-Feb-02 10:33N 40°40' E 002°10'10 9.9
2016-Feb-02 09:33N 40°32' E 002°03'10 9.9
2016-Feb-02 08:33N 40°24' E 001°55'1111.5
2016-Feb-02 07:33N 40°14' E 001°47'1110.8
2016-Feb-02 06:33N 40°05' E 001°39'1010.1
2016-Feb-02 05:33N 39°57' E 001°32'68 9.7
2016-Feb-01 22:33N 39°00' E 000°43'3410.0
2016-Feb-01 19:12N 38°33' E 000°19'3010.1
2016-Feb-01 16:16N 38°08' W 000°02'810.5
2016-Feb-01 15:30N 38°01' W 000°07'1010.0
2016-Feb-01 14:31N 37°53' W 000°14'9 9.8
2016-Feb-01 13:33N 37°45' W 000°21'1010.1
2016-Feb-01 12:33N 37°37' W 000°28'10 9.9
2016-Feb-01 11:32N 37°29' W 000°36'1010.1
2016-Feb-01 10:33N 37°23' W 000°46'1010.0
2016-Feb-01 09:33N 37°16' W 000°55'6310.2
2016-Feb-01 03:24N 36°35' W 001°54'8 9.6
2016-Feb-01 02:33N 36°29' W 002°02'1110.5
2016-Feb-01 01:33N 36°23' W 002°12'14810.3
2016-Jan-31 11:10N 35°56' W 005°12'6 9.8
2016-Jan-31 10:34N 35°54' W 005°19'1 0.6
2016-Jan-31 09:32N 35°54' W 005°19'0 0.0
2016-Jan-31 08:32N 35°54' W 005°19'0 0.0
2016-Jan-31 07:32N 35°54' W 005°19'1 1.0
2016-Jan-31 06:33N 35°55' W 005°19'2 1.9
2016-Jan-31 05:33N 35°57' W 005°20'0 0.3
2016-Jan-31 04:33N 35°57' W 005°20'0 0.1
2016-Jan-31 03:33N 35°57' W 005°19'4 4.2
2016-Jan-31 02:33N 35°57' W 005°25'13210.1
2016-Jan-30 13:33N 36°19' W 008°05'1010.0
2016-Jan-30 12:33N 36°22' W 008°17'10 9.3
2016-Jan-30 11:30N 36°24' W 008°29'14 9.7
2016-Jan-30 10:06N 36°28' W 008°45'5 9.1
2016-Jan-30 09:33N 36°29' W 008°51'2110.2
2016-Jan-30 07:30N 36°35' W 009°16'9 9.8
2016-Jan-30 06:33N 36°41' W 009°24'9 9.2
2016-Jan-30 05:33N 36°48' W 009°32'10 9.7
2016-Jan-30 04:33N 36°58' W 009°35'9 9.0
2016-Jan-30 03:33N 37°07' W 009°37'1010.2
2016-Jan-30 02:33N 37°16' W 009°40'10 9.9
2016-Jan-30 01:33N 37°26' W 009°43'9 8.8
2016-Jan-30 00:32N 37°35' W 009°45'10 9.9
2016-Jan-29 23:32N 37°44' W 009°48'10 9.9
2016-Jan-29 22:32N 37°54' W 009°51'1010.1
2016-Jan-29 21:32N 38°04' W 009°54'9 9.0
2016-Jan-29 20:32N 38°13' W 009°57'10 9.7
2016-Jan-29 19:33N 38°22' W 009°59'10 9.9
2016-Jan-29 18:33N 38°32' W 010°02'10 9.8
2016-Jan-29 17:33N 38°41' W 010°05'9 9.5
2016-Jan-29 16:33N 38°51' W 010°05'9 9.4
2016-Jan-29 15:33N 39°00' W 010°05'9 9.5
2016-Jan-29 14:33N 39°10' W 010°05'1010.2
2016-Jan-29 13:33N 39°20' W 010°05'10 9.9
2016-Jan-29 12:32N 39°30' W 010°05'1010.1
2016-Jan-29 11:32N 39°40' W 010°05'9 9.5
2016-Jan-29 10:33N 39°49' W 010°05'1212.3
2016-Jan-29 09:33N 40°02' W 010°05'9 9.4
2016-Jan-29 08:32N 40°11' W 010°05'1010.1
2016-Jan-29 07:30N 40°22' W 010°05'9 9.4
2016-Jan-29 06:33N 40°31' W 010°05'1010.4
2016-Jan-29 05:33N 40°41' W 010°05'9 9.4
2016-Jan-29 04:33N 40°50' W 010°05'1110.7
2016-Jan-29 03:33N 41°01' W 010°05'9 9.3
2016-Jan-29 02:33N 41°10' W 010°05'10 9.8
2016-Jan-29 01:33N 41°20' W 010°05'10 9.5
2016-Jan-29 00:33N 41°30' W 010°05'9 8.9
2016-Jan-28 23:33N 41°39' W 010°05'9 9.4
2016-Jan-28 22:33N 41°48' W 010°05'11 9.5
2016-Jan-28 21:27N 41°59' W 010°05'  
Track history (hours):
 
Tides and Currents Weather Stations Pressure Air Temp Water Temp Dewpoint Dewpoint Depression Visibility Wind Speed Wind Dir Waves Ship Positions

John_paul K

Last reported at 2016-Feb-05 19:23 UTC. Time now 2016-Feb-08 18:59 UTC.
Position N 43°23' E 003°44'.

Length 90 m; draft 5.9 m.

Type: Cargo ship. MMSI: 245181000.

Date/timePositionNaut miles runAvg speedWind from/ knotsBaromVisibWave heightAir tempDewpointWater temp
2016-Feb-05 19:23N 43°23' E 003°44'  
2016-Feb-02 10:33N 40°40' E 002°10'10 9.9
2016-Feb-02 09:33N 40°32' E 002°03'10 9.9
2016-Feb-02 08:33N 40°24' E 001°55'1111.5
2016-Feb-02 07:33N 40°14' E 001°47'1110.8
2016-Feb-02 06:33N 40°05' E 001°39'1010.1
2016-Feb-02 05:33N 39°57' E 001°32'68 9.7
2016-Feb-01 22:33N 39°00' E 000°43'3410.0
2016-Feb-01 19:12N 38°33' E 000°19'3010.1
2016-Feb-01 16:16N 38°08' W 000°02'810.5
2016-Feb-01 15:30N 38°01' W 000°07'1010.0
2016-Feb-01 14:31N 37°53' W 000°14'9 9.8
2016-Feb-01 13:33N 37°45' W 000°21'1010.1
2016-Feb-01 12:33N 37°37' W 000°28'10 9.9
2016-Feb-01 11:32N 37°29' W 000°36'1010.1
2016-Feb-01 10:33N 37°23' W 000°46'1010.0
2016-Feb-01 09:33N 37°16' W 000°55'6310.2
2016-Feb-01 03:24N 36°35' W 001°54'8 9.6
2016-Feb-01 02:33N 36°29' W 002°02'1110.5
2016-Feb-01 01:33N 36°23' W 002°12'14810.3
2016-Jan-31 11:10N 35°56' W 005°12'6 9.8
2016-Jan-31 10:34N 35°54' W 005°19'1 0.6
2016-Jan-31 09:32N 35°54' W 005°19'0 0.0
2016-Jan-31 08:32N 35°54' W 005°19'0 0.0
2016-Jan-31 07:32N 35°54' W 005°19'1 1.0
2016-Jan-31 06:33N 35°55' W 005°19'2 1.9
2016-Jan-31 05:33N 35°57' W 005°20'0 0.3
2016-Jan-31 04:33N 35°57' W 005°20'0 0.1
2016-Jan-31 03:33N 35°57' W 005°19'4 4.2
2016-Jan-31 02:33N 35°57' W 005°25'13210.1
2016-Jan-30 13:33N 36°19' W 008°05'1010.0
2016-Jan-30 12:33N 36°22' W 008°17'10 9.3
2016-Jan-30 11:30N 36°24' W 008°29'14 9.7
2016-Jan-30 10:06N 36°28' W 008°45'5 9.1
2016-Jan-30 09:33N 36°29' W 008°51'2110.2
2016-Jan-30 07:30N 36°35' W 009°16'9 9.8
2016-Jan-30 06:33N 36°41' W 009°24'9 9.2
2016-Jan-30 05:33N 36°48' W 009°32'10 9.7
2016-Jan-30 04:33N 36°58' W 009°35'9 9.0
2016-Jan-30 03:33N 37°07' W 009°37'1010.2
2016-Jan-30 02:33N 37°16' W 009°40'10 9.9
2016-Jan-30 01:33N 37°26' W 009°43'9 8.8
2016-Jan-30 00:32N 37°35' W 009°45'10 9.9
2016-Jan-29 23:32N 37°44' W 009°48'10 9.9
2016-Jan-29 22:32N 37°54' W 009°51'1010.1
2016-Jan-29 21:32N 38°04' W 009°54'9 9.0
2016-Jan-29 20:32N 38°13' W 009°57'10 9.7
2016-Jan-29 19:33N 38°22' W 009°59'10 9.9
2016-Jan-29 18:33N 38°32' W 010°02'10 9.8
2016-Jan-29 17:33N 38°41' W 010°05'9 9.5
2016-Jan-29 16:33N 38°51' W 010°05'9 9.4
2016-Jan-29 15:33N 39°00' W 010°05'9 9.5
2016-Jan-29 14:33N 39°10' W 010°05'1010.2
2016-Jan-29 13:33N 39°20' W 010°05'10 9.9
2016-Jan-29 12:32N 39°30' W 010°05'1010.1
2016-Jan-29 11:32N 39°40' W 010°05'9 9.5
2016-Jan-29 10:33N 39°49' W 010°05'1212.3
2016-Jan-29 09:33N 40°02' W 010°05'9 9.4
2016-Jan-29 08:32N 40°11' W 010°05'1010.1
2016-Jan-29 07:30N 40°22' W 010°05'9 9.4
2016-Jan-29 06:33N 40°31' W 010°05'1010.4
2016-Jan-29 05:33N 40°41' W 010°05'9 9.4
2016-Jan-29 04:33N 40°50' W 010°05'1110.7
2016-Jan-29 03:33N 41°01' W 010°05'9 9.3
2016-Jan-29 02:33N 41°10' W 010°05'10 9.8
2016-Jan-29 01:33N 41°20' W 010°05'10 9.5
2016-Jan-29 00:33N 41°30' W 010°05'9 8.9
2016-Jan-28 23:33N 41°39' W 010°05'9 9.4
2016-Jan-28 22:33N 41°48' W 010°05'11 9.5
2016-Jan-28 21:27N 41°59' W 010°05'  

Dump ship's entire track history